Time;durP1;ratioP1;P1;durP2;ratioP2;P2;SDS_P1;SDS_P2;PMS_P1;PMS_P2;Temp;Humidity;BMP_temperature;BMP_pressure;BME280_temperature;BME280_humidity;BME280_pressure;Samples;Min_cycle;Max_cycle;Signal;HPM_P1;HPM_P2
2023/06/10 00:00:24;;;;;;;21.02;19.13;;;;;24.30;100364.00;;;;2050976;28;20219;-50
2023/06/10 00:01:25;;;;;;;20.30;18.37;;;;;24.30;100369.00;;;;2049154;28;21089;-51
2023/06/10 00:02:26;;;;;;;20.27;18.47;;;;;24.30;100365.00;;;;2069284;28;20230;-49
2023/06/10 00:03:26;;;;;;;19.70;18.00;;;;;24.30;100372.00;;;;2064407;28;20446;-51
2023/06/10 00:04:27;;;;;;;20.40;18.50;;;;;24.30;100371.00;;;;2063565;28;20916;-51
2023/06/10 00:05:29;;;;;;;20.00;17.90;;;;;24.30;100371.00;;;;2049376;28;20215;-51
2023/06/10 00:06:36;;;;;;;20.10;18.27;;;;;24.30;100370.00;;;;2035028;28;20277;-49
2023/06/10 00:07:37;;;;;;;21.52;19.52;;;;;24.30;100330.00;;;;2060306;28;20231;-51
2023/06/10 00:08:39;;;;;;;18.50;16.88;;;;;24.30;100380.00;;;;2060333;28;20222;-50
2023/06/10 00:09:40;;;;;;;19.00;17.30;;;;;24.30;100377.00;;;;2059838;28;20237;-51
2023/06/10 00:10:40;;;;;;;18.87;17.07;;;;;24.30;100379.00;;;;2058437;28;20301;-50
2023/06/10 00:11:41;;;;;;;20.30;18.27;;;;;24.30;100375.00;;;;2045701;28;20295;-51
2023/06/10 00:12:42;;;;;;;21.17;19.07;;;;;24.30;100373.00;;;;2060089;28;20229;-55
2023/06/10 00:13:42;;;;;;;20.97;19.10;;;;;24.30;100376.00;;;;2061666;28;20274;-49
2023/06/10 00:14:43;;;;;;;18.93;17.23;;;;;24.30;100377.00;;;;2061418;28;20317;-50
2023/06/10 00:15:43;;;;;;;19.60;17.80;;;;;24.30;100377.00;;;;2065819;28;20214;-50
2023/06/10 00:16:44;;;;;;;19.43;17.43;;;;;24.30;100373.00;;;;2039556;28;20215;-50
2023/06/10 00:17:45;;;;;;;18.73;17.02;;;;;24.30;100372.00;;;;2058947;28;20988;-50
2023/06/10 00:18:46;;;;;;;18.77;17.10;;;;;24.30;100376.00;;;;2056946;28;20215;-50
2023/06/10 00:19:47;;;;;;;19.80;17.90;;;;;24.30;100366.00;;;;2056078;28;20219;-53
2023/06/10 00:20:48;;;;;;;18.17;16.50;;;;;24.30;100370.00;;;;2057691;28;20210;-50
2023/06/10 00:21:50;;;;;;;17.75;16.15;;;;;24.30;100373.00;;;;2055408;28;20206;-50
2023/06/10 00:22:51;;;;;;;17.27;15.77;;;;;24.30;100374.00;;;;2067106;28;20930;-50
2023/06/10 00:23:51;;;;;;;17.50;15.93;;;;;24.30;100367.00;;;;2056706;28;20238;-50
2023/06/10 00:24:52;;;;;;;18.03;16.43;;;;;24.30;100367.00;;;;2058069;28;20709;-50
2023/06/10 00:25:52;;;;;;;18.07;16.47;;;;;24.30;100365.00;;;;2033819;28;20211;-51
2023/06/10 00:26:52;;;;;;;17.57;15.93;;;;;24.30;100371.00;;;;2033787;28;20211;-52
2023/06/10 00:27:53;;;;;;;17.37;15.77;;;;;24.30;100370.00;;;;2058739;28;20230;-50
2023/06/10 00:28:53;;;;;;;17.77;16.17;;;;;24.30;100368.00;;;;2061457;28;20218;-50
2023/06/10 00:29:53;;;;;;;18.13;16.47;;;;;24.30;100371.00;;;;2059631;28;20970;-50
2023/06/10 00:30:54;;;;;;;17.73;16.13;;;;;24.30;100374.00;;;;2048920;28;20968;-51
2023/06/10 00:31:57;;;;;;;17.07;15.47;;;;;24.30;100357.00;;;;2059469;28;20880;-50
2023/06/10 00:32:57;;;;;;;18.38;16.58;;;;;24.30;100368.00;;;;2060398;28;20215;-50
2023/06/10 00:33:58;;;;;;;17.50;15.90;;;;;24.30;100367.00;;;;2059872;28;20242;-50
2023/06/10 00:34:59;;;;;;;18.45;16.60;;;;;24.30;100376.00;;;;2059765;28;20234;-50
2023/06/10 00:35:59;;;;;;;18.00;16.20;;;;;24.30;100376.00;;;;2051569;28;20246;-50
2023/06/10 00:36:59;;;;;;;17.63;15.93;;;;;24.30;100367.00;;;;2051984;28;20218;-50
2023/06/10 00:38:00;;;;;;;17.63;16.07;;;;;24.30;100364.00;;;;2066829;28;20691;-50
2023/06/10 00:39:00;;;;;;;16.63;15.00;;;;;24.30;100378.00;;;;2065426;28;20701;-50
2023/06/10 00:40:04;;;;;;;18.70;16.90;;;;;24.30;100372.00;;;;2061054;28;20637;-50
2023/06/10 00:41:05;;;;;;;16.35;14.88;;;;;24.30;100370.00;;;;2056792;28;20301;-50
2023/06/10 00:42:06;;;;;;;16.80;15.20;;;;;24.30;100364.00;;;;2070366;28;20280;-50
2023/06/10 00:43:07;;;;;;;16.13;14.63;;;;;24.30;100368.00;;;;2064999;28;20209;-50
2023/06/10 00:44:07;;;;;;;16.40;14.90;;;;;24.30;100372.00;;;;2063092;28;20730;-55
2023/06/10 00:45:08;;;;;;;16.60;15.00;;;;;24.30;100369.00;;;;2062008;28;20210;-50
2023/06/10 00:46:09;;;;;;;16.27;14.73;;;;;24.30;100378.00;;;;2050880;28;20288;-50
2023/06/10 00:47:09;;;;;;;15.83;14.27;;;;;24.30;100373.00;;;;2055555;28;20223;-50
2023/06/10 00:48:09;;;;;;;16.27;14.77;;;;;24.30;100374.00;;;;2057229;28;20221;-50
2023/06/10 00:49:10;;;;;;;17.60;16.00;;;;;24.30;100371.00;;;;2059946;28;20298;-50
2023/06/10 00:50:10;;;;;;;16.67;15.17;;;;;24.30;100379.00;;;;2051816;28;20264;-50
2023/06/10 00:51:10;;;;;;;17.47;15.67;;;;;24.30;100376.00;;;;2056421;28;20215;-50
2023/06/10 00:52:11;;;;;;;16.80;15.20;;;;;24.20;100375.00;;;;2068423;28;20214;-50
2023/06/10 00:53:11;;;;;;;15.90;14.40;;;;;24.20;100374.00;;;;2071961;28;20217;-50
2023/06/10 00:54:13;;;;;;;16.70;15.23;;;;;24.20;100381.00;;;;2047447;28;20222;-50
2023/06/10 00:55:14;;;;;;;16.85;15.25;;;;;24.20;100383.00;;;;2050409;28;20613;-50
2023/06/10 00:56:15;;;;;;;15.23;13.82;;;;;24.20;100377.00;;;;2040610;28;20242;-50
2023/06/10 00:57:15;;;;;;;15.90;14.40;;;;;24.20;100382.00;;;;2038763;28;20257;-51
2023/06/10 00:58:16;;;;;;;16.47;14.87;;;;;24.20;100381.00;;;;2058874;28;20293;-51
2023/06/10 00:59:16;;;;;;;15.53;14.13;;;;;24.20;100381.00;;;;2060407;28;20248;-50
2023/06/10 01:00:17;;;;;;;15.90;14.40;;;;;24.20;100378.00;;;;2053901;28;20214;-50
2023/06/10 01:01:17;;;;;;;17.23;15.53;;;;;24.20;100380.00;;;;2050487;28;20330;-50
2023/06/10 01:02:18;;;;;;;15.03;13.73;;;;;24.20;100387.00;;;;2055179;28;20219;-50
2023/06/10 01:03:18;;;;;;;16.27;14.80;;;;;24.20;100380.00;;;;2059043;28;20715;-50
2023/06/10 01:04:19;;;;;;;15.93;14.53;;;;;24.20;100376.00;;;;2066087;28;20241;-50
2023/06/10 01:05:20;;;;;;;14.97;13.67;;;;;24.20;100380.00;;;;2061635;28;20219;-50
2023/06/10 01:06:31;;;;;;;14.87;13.67;;;;;24.20;100375.00;;;;2047540;28;21025;-50
2023/06/10 01:07:35;;;;;;;15.38;14.02;;;;;24.20;100379.00;;;;2044693;28;20299;-50
2023/06/10 01:08:50;;;;;;;15.93;14.35;;;;;24.20;100376.00;;;;2046532;28;20228;-50
2023/06/10 01:10:04;;;;;;;15.73;14.32;;;;;24.20;100372.00;;;;2043314;28;20207;-50
2023/06/10 01:11:07;;;;;;;15.20;13.90;;;;;24.20;100381.00;;;;2047229;28;20289;-50
2023/06/10 01:12:41;;;;;;;16.02;14.55;;;;;24.20;100373.00;;;;2042901;28;20223;-50
2023/06/10 01:13:41;;;;;;;14.70;13.40;;;;;24.20;100382.00;;;;2049944;28;20407;-50
2023/06/10 01:14:44;;;;;;;15.17;13.87;;;;;24.20;100376.00;;;;2059237;28;20676;-50
2023/06/10 01:15:45;;;;;;;16.10;14.60;;;;;24.20;100380.00;;;;2057862;28;20254;-50
2023/06/10 01:16:45;;;;;;;15.07;13.70;;;;;24.20;100376.00;;;;2034740;28;20253;-50
2023/06/10 01:18:01;;;;;;;14.67;13.17;;;;;24.20;100378.00;;;;2052677;28;20221;-50
2023/06/10 01:19:01;;;;;;;14.30;13.10;;;;;24.20;100380.00;;;;2049124;28;20805;-50
2023/06/10 01:20:11;;;;;;;15.60;14.20;;;;;24.20;100382.00;;;;2060099;28;20280;-50
2023/06/10 01:21:16;;;;;;;14.25;13.05;;;;;24.20;100387.00;;;;2048530;28;21429;-50
2023/06/10 01:22:17;;;;;;;15.18;13.77;;;;;24.20;100382.00;;;;2060348;28;20237;-50
2023/06/10 01:23:17;;;;;;;14.23;12.97;;;;;24.20;100383.00;;;;2059749;28;20215;-50
2023/06/10 01:24:18;;;;;;;14.77;13.37;;;;;24.20;100384.00;;;;2058523;28;20281;-51
2023/06/10 01:25:18;;;;;;;14.50;13.30;;;;;24.20;100388.00;;;;2055228;28;20757;-50
2023/06/10 01:26:20;;;;;;;14.73;13.43;;;;;24.20;100385.00;;;;2051783;28;20254;-50
2023/06/10 01:27:21;;;;;;;14.48;13.18;;;;;24.20;100391.00;;;;2034989;28;20223;-50
2023/06/10 01:28:27;;;;;;;13.65;12.55;;;;;24.20;100384.00;;;;2046808;28;20226;-50
2023/06/10 01:29:39;;;;;;;14.88;13.48;;;;;24.20;100385.00;;;;2050440;28;20252;-50
2023/06/10 01:30:53;;;;;;;12.93;11.82;;;;;24.20;100391.00;;;;2052378;28;20232;-50
2023/06/10 01:32:32;;;;;;;14.07;12.77;;;;;24.20;100382.00;;;;2048045;28;20226;-51
2023/06/10 01:33:35;;;;;;;14.50;13.20;;;;;24.20;100384.00;;;;2048074;28;20215;-51
2023/06/10 01:34:37;;;;;;;13.98;12.65;;;;;24.20;100382.00;;;;2052393;28;20226;-50
2023/06/10 01:35:39;;;;;;;14.30;12.90;;;;;24.20;100386.00;;;;2044663;28;20228;-50
2023/06/10 01:36:40;;;;;;;14.20;12.80;;;;;24.20;100382.00;;;;2039407;28;20216;-50
2023/06/10 01:37:40;;;;;;;13.57;12.30;;;;;24.20;100388.00;;;;2057891;28;20226;-50
2023/06/10 01:38:43;;;;;;;13.40;12.20;;;;;24.20;100375.00;;;;2065589;28;20671;-50
2023/06/10 01:39:43;;;;;;;12.98;11.80;;;;;24.20;100392.00;;;;2050086;28;20223;-50
2023/06/10 01:40:44;;;;;;;12.73;11.73;;;;;24.20;100385.00;;;;2049277;28;20226;-50
2023/06/10 01:41:44;;;;;;;12.47;11.27;;;;;24.20;100386.00;;;;2047852;28;20219;-50
2023/06/10 01:42:44;;;;;;;13.80;12.40;;;;;24.20;100382.00;;;;2051032;28;20266;-50
2023/06/10 01:43:45;;;;;;;13.30;12.20;;;;;24.20;100384.00;;;;2052161;28;20246;-50
2023/06/10 01:44:45;;;;;;;13.23;12.13;;;;;24.20;100386.00;;;;2053186;28;20266;-50
2023/06/10 01:45:46;;;;;;;14.07;12.73;;;;;24.20;100388.00;;;;2059901;28;20222;-50
2023/06/10 01:46:46;;;;;;;12.13;11.00;;;;;24.20;100383.00;;;;2049572;28;20230;-50
2023/06/10 01:47:46;;;;;;;13.63;12.47;;;;;24.20;100388.00;;;;2062824;28;20325;-50
2023/06/10 01:48:47;;;;;;;13.23;11.93;;;;;24.20;100377.00;;;;2054438;28;20240;-51
2023/06/10 01:49:47;;;;;;;13.43;12.33;;;;;24.20;100382.00;;;;2065149;28;20344;-51
2023/06/10 01:50:48;;;;;;;13.10;11.90;;;;;24.00;100385.00;;;;2056613;28;20225;-49
2023/06/10 01:51:48;;;;;;;13.63;12.53;;;;;24.20;100381.00;;;;2049058;28;21713;-50
2023/06/10 01:52:48;;;;;;;12.80;11.70;;;;;24.20;100385.00;;;;2066023;28;22492;-51
2023/06/10 01:53:49;;;;;;;12.83;11.80;;;;;24.20;100393.00;;;;2060705;28;20726;-51
2023/06/10 01:54:49;;;;;;;11.53;10.43;;;;;24.20;100389.00;;;;2059024;28;21076;-51
2023/06/10 01:55:50;;;;;;;11.87;10.87;;;;;24.20;100391.00;;;;2051541;28;20724;-51
2023/06/10 01:56:51;;;;;;;12.00;10.80;;;;;24.20;100385.00;;;;2057143;28;20225;-50
2023/06/10 01:57:51;;;;;;;12.50;11.50;;;;;24.20;100384.00;;;;2060208;28;20525;-50
2023/06/10 01:58:54;;;;;;;11.87;10.87;;;;;24.20;100388.00;;;;2058864;28;20468;-50
2023/06/10 01:59:55;;;;;;;12.73;11.63;;;;;24.20;100387.00;;;;2051038;28;21015;-50
2023/06/10 02:00:55;;;;;;;12.00;10.90;;;;;24.20;100395.00;;;;2058951;28;20222;-50
2023/06/10 02:01:55;;;;;;;12.97;11.87;;;;;24.00;100392.00;;;;2050462;28;20218;-50
2023/06/10 02:02:56;;;;;;;11.87;10.83;;;;;24.20;100387.00;;;;2061011;28;20301;-50
2023/06/10 02:03:56;;;;;;;12.60;11.40;;;;;24.20;100397.00;;;;2058170;28;20219;-50
2023/06/10 02:04:57;;;;;;;12.00;11.00;;;;;24.20;100395.00;;;;2059039;28;20852;-50
2023/06/10 02:05:57;;;;;;;12.40;11.30;;;;;24.20;100392.00;;;;2055065;28;20272;-51
2023/06/10 02:06:57;;;;;;;12.37;11.27;;;;;24.20;100386.00;;;;2053751;28;20300;-50
2023/06/10 02:07:58;;;;;;;12.67;11.57;;;;;24.10;100389.00;;;;2036810;28;20202;-50
2023/06/10 02:08:58;;;;;;;11.83;10.80;;;;;24.10;100398.00;;;;2057919;28;20218;-50
2023/06/10 02:09:58;;;;;;;12.03;10.63;;;;;24.20;100388.00;;;;2060895;28;20222;-50
2023/06/10 02:10:59;;;;;;;12.73;11.63;;;;;24.20;100396.00;;;;2048382;28;20971;-52
2023/06/10 02:11:59;;;;;;;11.87;10.87;;;;;24.20;100393.00;;;;2059912;28;20214;-50
2023/06/10 02:12:59;;;;;;;12.13;11.13;;;;;24.10;100395.00;;;;2059455;28;20308;-50
2023/06/10 02:14:00;;;;;;;11.50;10.40;;;;;24.10;100386.00;;;;2059229;28;20219;-50
2023/06/10 02:15:00;;;;;;;11.70;10.70;;;;;24.10;100391.00;;;;2059362;28;20222;-51
2023/06/10 02:16:01;;;;;;;10.97;10.07;;;;;24.10;100389.00;;;;2060494;28;20222;-50
2023/06/10 02:17:01;;;;;;;11.60;10.60;;;;;24.10;100396.00;;;;2047299;28;20229;-50
2023/06/10 02:18:02;;;;;;;11.30;10.40;;;;;24.10;100389.00;;;;2057646;28;20270;-50
2023/06/10 02:19:06;;;;;;;11.13;10.13;;;;;24.10;100392.00;;;;2061904;28;20224;-50
2023/06/10 02:20:08;;;;;;;11.70;10.70;;;;;24.10;100400.00;;;;2060149;28;20456;-50
2023/06/10 02:21:08;;;;;;;12.27;11.27;;;;;24.10;100398.00;;;;2047159;28;20628;-50
2023/06/10 02:22:09;;;;;;;11.07;10.17;;;;;24.10;100397.00;;;;2059052;28;20211;-50
2023/06/10 02:23:09;;;;;;;11.93;10.83;;;;;24.10;100404.00;;;;2058560;28;20261;-50
2023/06/10 02:24:10;;;;;;;11.83;10.73;;;;;24.10;100395.00;;;;2047549;28;20712;-50
2023/06/10 02:25:10;;;;;;;11.77;10.77;;;;;24.10;100397.00;;;;2066359;28;20654;-50
2023/06/10 02:26:10;;;;;;;11.20;10.30;;;;;24.10;100400.00;;;;2049561;28;20606;-50
2023/06/10 02:27:11;;;;;;;11.23;10.33;;;;;24.10;100397.00;;;;2058517;28;20246;-50
2023/06/10 02:28:11;;;;;;;11.40;10.40;;;;;24.10;100401.00;;;;2058663;28;20219;-50
2023/06/10 02:29:12;;;;;;;11.47;10.47;;;;;24.20;100400.00;;;;2060734;28;20223;-50
2023/06/10 02:30:13;;;;;;;11.60;10.60;;;;;24.10;100392.00;;;;2059632;28;20305;-50
2023/06/10 02:31:14;;;;;;;12.27;11.18;;;;;24.10;100402.00;;;;2047578;28;20231;-50
2023/06/10 02:32:14;;;;;;;11.83;10.83;;;;;24.10;100394.00;;;;2059045;28;20741;-50
2023/06/10 02:33:15;;;;;;;11.50;10.50;;;;;24.10;100396.00;;;;2060060;28;20302;-50
2023/06/10 02:34:15;;;;;;;11.80;10.80;;;;;24.10;100398.00;;;;2049216;28;20215;-50
2023/06/10 02:35:17;;;;;;;11.37;10.37;;;;;24.10;100398.00;;;;2052136;28;20747;-50
2023/06/10 02:36:17;;;;;;;11.13;10.23;;;;;24.10;100402.00;;;;2050605;28;20223;-50
2023/06/10 02:37:17;;;;;;;11.90;10.90;;;;;24.10;100400.00;;;;2067657;28;20250;-50
2023/06/10 02:38:18;;;;;;;10.63;9.73;;;;;24.10;100387.00;;;;2064248;28;20497;-50
2023/06/10 02:39:18;;;;;;;10.90;10.00;;;;;24.10;100393.00;;;;2036465;28;20223;-50
2023/06/10 02:40:18;;;;;;;11.50;10.50;;;;;24.10;100391.00;;;;2051681;28;20230;-50
2023/06/10 02:41:19;;;;;;;10.57;9.77;;;;;24.10;100394.00;;;;2037518;28;20238;-50
2023/06/10 02:42:19;;;;;;;10.30;9.40;;;;;24.10;100397.00;;;;2057747;28;20228;-50
2023/06/10 02:43:19;;;;;;;10.83;9.97;;;;;24.20;100393.00;;;;2070687;28;20237;-50
2023/06/10 02:44:20;;;;;;;10.20;9.13;;;;;24.10;100388.00;;;;2060882;28;20219;-50
2023/06/10 02:45:20;;;;;;;10.30;9.40;;;;;24.10;100395.00;;;;2059286;28;20226;-50
2023/06/10 02:46:21;;;;;;;11.17;10.17;;;;;24.10;100390.00;;;;2049952;28;20215;-50
2023/06/10 02:47:21;;;;;;;10.27;9.37;;;;;24.10;100398.00;;;;2058671;28;20280;-50
2023/06/10 02:48:23;;;;;;;10.50;9.60;;;;;24.10;100390.00;;;;2056485;28;20293;-50
2023/06/10 02:49:24;;;;;;;11.05;10.15;;;;;24.10;100397.00;;;;2056727;28;20306;-50
2023/06/10 02:50:24;;;;;;;10.53;9.70;;;;;24.10;100396.00;;;;2058490;28;20690;-50
2023/06/10 02:51:25;;;;;;;10.20;9.33;;;;;24.10;100396.00;;;;2048964;28;20364;-52
2023/06/10 02:52:25;;;;;;;10.47;9.53;;;;;24.10;100401.00;;;;2059928;28;20289;-50
2023/06/10 02:53:25;;;;;;;10.23;9.37;;;;;24.10;100391.00;;;;2060056;28;20218;-50
2023/06/10 02:54:26;;;;;;;11.47;10.40;;;;;24.10;100390.00;;;;2057678;28;20246;-50
2023/06/10 02:55:26;;;;;;;10.70;9.80;;;;;24.10;100395.00;;;;2060081;28;20218;-50
2023/06/10 02:56:26;;;;;;;10.23;9.33;;;;;24.10;100397.00;;;;2049296;28;20238;-50
2023/06/10 02:57:27;;;;;;;10.77;9.87;;;;;24.10;100393.00;;;;2060947;28;20250;-50
2023/06/10 02:58:27;;;;;;;11.93;10.83;;;;;24.10;100389.00;;;;2057659;28;20217;-50
2023/06/10 02:59:28;;;;;;;11.20;10.20;;;;;24.10;100389.00;;;;2049137;28;20219;-50
2023/06/10 03:00:28;;;;;;;10.95;9.82;;;;;24.10;100400.00;;;;2057633;28;20232;-50
2023/06/10 03:01:31;;;;;;;10.37;9.43;;;;;24.10;100401.00;;;;2051353;28;20233;-50
2023/06/10 03:02:31;;;;;;;10.68;9.80;;;;;24.10;100387.00;;;;2059552;28;20302;-50
2023/06/10 03:03:33;;;;;;;10.23;9.23;;;;;24.10;100395.00;;;;2059781;28;20222;-50
2023/06/10 03:04:33;;;;;;;10.82;9.93;;;;;24.10;100396.00;;;;2054052;28;20222;-51
2023/06/10 03:05:34;;;;;;;10.33;9.50;;;;;24.10;100401.00;;;;2053195;28;20262;-53
2023/06/10 03:06:35;;;;;;;10.53;9.67;;;;;24.10;100401.00;;;;2043911;28;20226;-49
2023/06/10 03:07:36;;;;;;;10.80;9.90;;;;;24.10;100313.00;;;;2058933;28;20210;-51
2023/06/10 03:08:37;;;;;;;11.07;10.18;;;;;24.10;100395.00;;;;2062435;28;20469;-50
2023/06/10 03:09:37;;;;;;;9.63;8.82;;;;;24.10;100398.00;;;;2059637;28;20226;-50
2023/06/10 03:10:38;;;;;;;10.30;9.50;;;;;24.10;100394.00;;;;2058029;28;20230;-50
2023/06/10 03:11:38;;;;;;;10.37;9.47;;;;;24.10;100391.00;;;;2049911;28;20238;-50
2023/06/10 03:12:38;;;;;;;10.00;9.20;;;;;24.10;100390.00;;;;2059112;28;20238;-50
2023/06/10 03:13:40;;;;;;;10.20;9.30;;;;;24.10;100390.00;;;;2060892;28;20482;-50
2023/06/10 03:14:41;;;;;;;9.73;8.93;;;;;24.10;100392.00;;;;2056236;28;20233;-50
2023/06/10 03:15:41;;;;;;;10.30;9.50;;;;;24.10;100391.00;;;;2058394;28;20242;-50
2023/06/10 03:16:42;;;;;;;10.60;9.80;;;;;24.10;100393.00;;;;2050451;28;20498;-50
2023/06/10 03:17:42;;;;;;;9.93;9.13;;;;;24.10;100395.00;;;;2058203;28;20689;-50
2023/06/10 03:18:43;;;;;;;10.17;9.37;;;;;24.10;100412.00;;;;2058874;28;20509;-50
2023/06/10 03:19:43;;;;;;;9.63;8.90;;;;;24.10;100390.00;;;;2058250;28;20587;-50
2023/06/10 03:20:44;;;;;;;10.77;9.87;;;;;24.10;100396.00;;;;2058546;28;20601;-53
2023/06/10 03:21:44;;;;;;;10.82;9.55;;;;;24.10;100391.00;;;;2056720;28;20225;-50
2023/06/10 03:22:45;;;;;;;10.77;9.77;;;;;24.10;100395.00;;;;2059449;28;20253;-50
2023/06/10 03:23:45;;;;;;;10.30;9.40;;;;;24.10;100411.00;;;;2058706;28;20706;-50
2023/06/10 03:24:46;;;;;;;11.20;10.20;;;;;24.10;100389.00;;;;2056137;28;20218;-50
2023/06/10 03:25:46;;;;;;;9.70;8.90;;;;;24.10;100388.00;;;;2051576;28;20642;-50
2023/06/10 03:26:47;;;;;;;10.10;9.20;;;;;24.10;100392.00;;;;2048413;28;20350;-50
2023/06/10 03:27:47;;;;;;;10.07;9.07;;;;;24.10;100398.00;;;;2060588;28;20219;-50
2023/06/10 03:28:48;;;;;;;9.73;8.90;;;;;23.90;100397.00;;;;2057704;28;20229;-50
2023/06/10 03:29:48;;;;;;;10.07;9.27;;;;;24.10;100402.00;;;;2059403;28;20218;-50
2023/06/10 03:30:49;;;;;;;10.73;9.93;;;;;24.10;100402.00;;;;2051356;28;20542;-50
2023/06/10 03:31:49;;;;;;;10.40;9.50;;;;;24.10;100396.00;;;;2062588;28;20230;-50
2023/06/10 03:32:50;;;;;;;9.27;8.57;;;;;24.10;100406.00;;;;2067113;28;20222;-51
2023/06/10 03:33:50;;;;;;;9.87;9.00;;;;;24.10;100404.00;;;;2061826;28;20242;-50
2023/06/10 03:34:51;;;;;;;9.97;9.17;;;;;24.00;100402.00;;;;2059996;28;20248;-50
2023/06/10 03:35:51;;;;;;;10.40;9.60;;;;;24.10;100409.00;;;;2059944;28;20218;-51
2023/06/10 03:36:51;;;;;;;10.13;9.23;;;;;24.10;100407.00;;;;2055512;28;20226;-50
2023/06/10 03:37:52;;;;;;;10.00;9.00;;;;;24.10;100401.00;;;;2046105;28;20230;-50
2023/06/10 03:38:53;;;;;;;10.40;9.50;;;;;24.10;100402.00;;;;2068005;28;20265;-50
2023/06/10 03:39:54;;;;;;;10.10;9.30;;;;;24.10;100409.00;;;;2058539;28;20221;-50
2023/06/10 03:40:54;;;;;;;10.07;9.27;;;;;24.00;100406.00;;;;2058862;28;20916;-50
2023/06/10 03:41:56;;;;;;;10.80;9.70;;;;;24.10;100407.00;;;;2050356;28;20215;-50
2023/06/10 03:42:56;;;;;;;9.50;8.75;;;;;24.00;100402.00;;;;2056745;28;20226;-50
2023/06/10 03:43:56;;;;;;;9.63;8.80;;;;;24.10;100403.00;;;;2067983;28;21036;-50
2023/06/10 03:44:56;;;;;;;9.63;8.93;;;;;24.10;100403.00;;;;2061315;28;20772;-50
2023/06/10 03:45:57;;;;;;;10.10;9.20;;;;;24.10;100406.00;;;;2050590;28;20234;-50
2023/06/10 03:46:57;;;;;;;11.00;9.90;;;;;24.10;100410.00;;;;2058628;28;20284;-50
2023/06/10 03:47:58;;;;;;;10.53;9.53;;;;;24.10;100404.00;;;;2055285;28;20687;-50
2023/06/10 03:49:00;;;;;;;10.00;9.13;;;;;24.10;100409.00;;;;2053955;28;20750;-50
2023/06/10 03:50:01;;;;;;;9.27;8.57;;;;;24.00;100408.00;;;;2060068;28;20211;-50
2023/06/10 03:51:01;;;;;;;9.60;8.80;;;;;24.10;100413.00;;;;2059916;28;20207;-50
2023/06/10 03:52:02;;;;;;;9.80;9.00;;;;;24.00;100423.00;;;;2050337;28;20215;-50
2023/06/10 03:53:02;;;;;;;9.93;9.13;;;;;24.00;100408.00;;;;2060955;28;20225;-52
2023/06/10 03:54:02;;;;;;;10.10;9.10;;;;;24.10;100423.00;;;;2059408;28;20180;-50
2023/06/10 03:55:03;;;;;;;10.77;9.87;;;;;24.10;100366.00;;;;2060010;28;20214;-50
2023/06/10 03:56:04;;;;;;;10.27;9.37;;;;;24.00;100418.00;;;;2065380;28;20272;-50
2023/06/10 03:57:05;;;;;;;10.50;9.63;;;;;24.00;100408.00;;;;2051125;28;20726;-50
2023/06/10 03:58:06;;;;;;;9.32;8.60;;;;;24.00;100410.00;;;;2056335;28;20217;-50
2023/06/10 03:59:06;;;;;;;9.73;9.00;;;;;24.00;100410.00;;;;2067532;28;20198;-50
2023/06/10 04:00:13;;;;;;;9.53;8.60;;;;;24.00;100418.00;;;;2061418;28;20321;-50
2023/06/10 04:01:13;;;;;;;9.95;9.05;;;;;24.00;100411.00;;;;2045303;28;20242;-50
2023/06/10 04:02:13;;;;;;;9.10;8.40;;;;;23.90;100412.00;;;;2059404;28;20227;-51
2023/06/10 04:03:14;;;;;;;9.80;9.00;;;;;24.00;100412.00;;;;2061746;28;20245;-50
2023/06/10 04:04:16;;;;;;;9.80;9.00;;;;;24.00;100418.00;;;;2059297;28;20246;-50
2023/06/10 04:05:17;;;;;;;9.85;8.98;;;;;24.00;100410.00;;;;2058030;28;20233;-50
2023/06/10 04:06:17;;;;;;;9.10;8.37;;;;;24.00;100419.00;;;;2042769;28;20210;-50
2023/06/10 04:07:20;;;;;;;9.70;8.80;;;;;24.00;100414.00;;;;2059285;28;20569;-51
2023/06/10 04:08:20;;;;;;;9.48;8.77;;;;;24.00;100415.00;;;;2057716;28;20203;-50
2023/06/10 04:09:21;;;;;;;10.00;9.20;;;;;24.00;100418.00;;;;2060164;28;20247;-50
2023/06/10 04:10:21;;;;;;;9.60;8.80;;;;;24.00;100420.00;;;;2061304;28;20219;-50
2023/06/10 04:11:21;;;;;;;9.40;8.60;;;;;24.00;100419.00;;;;2035333;28;20905;-50
2023/06/10 04:12:22;;;;;;;9.80;9.00;;;;;24.00;100419.00;;;;2068189;28;20709;-50
2023/06/10 04:13:22;;;;;;;9.40;8.60;;;;;24.00;100416.00;;;;2053908;28;20230;-50
2023/06/10 04:14:22;;;;;;;9.03;8.27;;;;;24.00;100418.00;;;;2052288;28;20278;-50
2023/06/10 04:15:23;;;;;;;10.20;9.30;;;;;24.00;100419.00;;;;2059746;28;20277;-50
2023/06/10 04:16:23;;;;;;;9.80;9.00;;;;;24.00;100425.00;;;;2047290;28;20225;-51
2023/06/10 04:17:23;;;;;;;9.50;8.80;;;;;24.00;100426.00;;;;2060399;28;20888;-51
2023/06/10 04:18:24;;;;;;;9.30;8.60;;;;;24.00;100426.00;;;;2053026;28;21000;-50
2023/06/10 04:19:24;;;;;;;9.50;8.77;;;;;24.00;100423.00;;;;2059670;28;20307;-50
2023/06/10 04:20:25;;;;;;;8.63;7.93;;;;;24.00;100430.00;;;;2058859;28;20258;-51
2023/06/10 04:21:26;;;;;;;9.67;8.97;;;;;24.00;100425.00;;;;2038588;28;20236;-52
2023/06/10 04:22:26;;;;;;;8.93;8.20;;;;;24.00;100420.00;;;;2069070;28;20225;-50
2023/06/10 04:23:26;;;;;;;9.43;8.63;;;;;24.00;100430.00;;;;2066773;28;20218;-50
2023/06/10 04:24:27;;;;;;;10.20;9.20;;;;;24.00;100426.00;;;;2055720;28;20230;-50
2023/06/10 04:25:28;;;;;;;9.00;8.20;;;;;24.00;100429.00;;;;2065447;28;20229;-50
2023/06/10 04:26:28;;;;;;;9.15;8.45;;;;;24.00;100430.00;;;;2050960;28;20230;-50
2023/06/10 04:27:29;;;;;;;9.57;8.77;;;;;24.00;100428.00;;;;2059994;28;20276;-50
2023/06/10 04:28:30;;;;;;;9.77;8.87;;;;;24.00;100430.00;;;;2051211;28;20217;-50
2023/06/10 04:29:30;;;;;;;10.20;9.30;;;;;24.00;100423.00;;;;2066287;28;20230;-50
2023/06/10 04:30:31;;;;;;;9.00;8.23;;;;;24.00;100426.00;;;;2062990;28;20226;-50
2023/06/10 04:31:32;;;;;;;9.27;8.47;;;;;24.00;100430.00;;;;2049152;28;20207;-50
2023/06/10 04:32:32;;;;;;;10.10;9.27;;;;;24.10;100424.00;;;;2066199;28;21041;-50
2023/06/10 04:33:33;;;;;;;9.33;8.60;;;;;24.10;100429.00;;;;2070046;28;20218;-50
2023/06/10 04:34:33;;;;;;;8.90;8.20;;;;;24.10;100427.00;;;;2059669;28;20218;-50
2023/06/10 04:35:34;;;;;;;9.80;8.90;;;;;24.00;100422.00;;;;2059075;28;20239;-50
2023/06/10 04:36:34;;;;;;;8.87;8.17;;;;;24.10;100427.00;;;;2052105;28;20614;-50
2023/06/10 04:37:34;;;;;;;9.00;8.30;;;;;24.10;100431.00;;;;2037154;28;20585;-50
2023/06/10 04:38:35;;;;;;;9.90;9.10;;;;;24.10;100429.00;;;;2060284;28;20765;-50
2023/06/10 04:39:35;;;;;;;9.90;9.00;;;;;24.10;100429.00;;;;2061149;28;20916;-50
2023/06/10 04:40:36;;;;;;;9.67;8.77;;;;;24.10;100435.00;;;;2055092;28;20618;-50
2023/06/10 04:41:36;;;;;;;9.37;8.50;;;;;24.10;100433.00;;;;2050671;28;20762;-50
2023/06/10 04:42:36;;;;;;;9.20;8.50;;;;;24.10;100430.00;;;;2052337;28;20227;-51
2023/06/10 04:43:37;;;;;;;10.47;9.47;;;;;24.10;100433.00;;;;2059869;28;20238;-50
2023/06/10 04:44:38;;;;;;;9.73;8.93;;;;;24.10;100379.00;;;;2059659;28;20222;-50
2023/06/10 04:45:39;;;;;;;10.07;9.20;;;;;24.10;100433.00;;;;2046567;28;20315;-50
2023/06/10 04:46:39;;;;;;;9.70;8.90;;;;;24.10;100431.00;;;;2049872;28;20482;-50
2023/06/10 04:47:40;;;;;;;9.30;8.60;;;;;24.10;100435.00;;;;2058871;28;20230;-50
2023/06/10 04:48:42;;;;;;;9.20;8.50;;;;;24.10;100438.00;;;;2037582;28;20211;-52
2023/06/10 04:49:42;;;;;;;8.90;8.10;;;;;24.10;100431.00;;;;2054036;28;20214;-50
2023/06/10 04:50:42;;;;;;;9.23;8.53;;;;;24.10;100436.00;;;;2060943;28;20215;-50
2023/06/10 04:51:43;;;;;;;9.60;8.80;;;;;24.10;100431.00;;;;2048764;28;20226;-49
2023/06/10 04:52:44;;;;;;;9.80;9.00;;;;;24.10;100437.00;;;;2060977;28;20211;-50
2023/06/10 04:53:44;;;;;;;10.43;9.52;;;;;24.10;100455.00;;;;2059682;28;20300;-50
2023/06/10 04:54:45;;;;;;;9.50;8.80;;;;;24.10;100442.00;;;;2058351;28;20691;-50
2023/06/10 04:55:45;;;;;;;9.10;8.40;;;;;24.10;100439.00;;;;2059294;28;20218;-50
2023/06/10 04:56:46;;;;;;;8.77;7.97;;;;;24.10;100430.00;;;;2047991;28;20234;-50
2023/06/10 04:57:46;;;;;;;10.00;9.10;;;;;24.10;100435.00;;;;2059594;28;21000;-50